Flight Track Log - Related Links

Times and Time Zones

All times are in EDT time to prevent confusion due to time zone crossing. See the SKW6528 flight status page for this flight to view local times or setup timezone preferences in your user account.

Time Position Orientation Groundspeed Altitude Reporting Facility
EDT Latitude Longitude Course Direction KTS MPH feet Rate Location/Type
Sun 12:17:00 PM 39.6977 -103.7656 103° East  Level Estimated
Sun 12:18:00 PM 39.6697 -103.6147 104° East  Level Estimated
Sun 12:19:00 PM 39.6415 -103.4640 104° East  Level Estimated
Sun 12:20:00 PM 39.6131 -103.3134 104° East  Level Estimated
Sun 12:21:00 PM 39.5845 -103.1629 104° East  Level Estimated
Sun 12:22:00 PM 39.5557 -103.0126 104° East  Level Estimated
Sun 12:23:00 PM 39.5268 -102.8624 104° East  Level Estimated
Sun 12:24:00 PM 39.4976 -102.7123 104° East  Level Estimated
Sun 12:25:00 PM 39.4682 -102.5623 104° East  Level Estimated
Sun 12:26:00 PM 39.4387 -102.4125 104° East  Level Estimated
Sun 12:27:00 PM 39.4089 -102.2627 104° East  Level Estimated
Sun 12:28:00 PM 39.3790 -102.1132 104° East  Level Estimated
Sun 12:29:00 PM 39.3488 -101.9637 105° East  Level Estimated
Sun 12:30:00 PM 39.3185 -101.8144 105° East  Level Estimated
Sun 12:31:00 PM 39.2880 -101.6652 105° East  Level Estimated
Sun 12:32:00 PM 39.2573 -101.5161 105° East  Level Estimated
Sun 12:33:00 PM 39.2264 -101.3671 105° East  Level Estimated
Sun 12:34:00 PM 39.1953 -101.2183 105° East  Level Estimated
Sun 12:35:00 PM 39.1641 -101.0697 105° East  Level Estimated
Sun 12:36:00 PM 39.1326 -100.9211 105° East  Level Estimated
Sun 12:37:00 PM 39.1010 -100.7727 105° East  Level Estimated
Sun 12:38:00 PM 39.0691 -100.6244 105° East  Level Estimated
Sun 12:39:00 PM 39.0371 -100.4763 106° East  Level Estimated
Sun 12:40:00 PM 39.0049 -100.3283 106° East  Level Estimated
Sun 12:41:00 PM 38.9725 -100.1804 106° East  Level Estimated
Sun 12:42:00 PM 38.9399 -100.0327 106° East  Level Estimated
Sun 12:43:00 PM 38.9071 -99.8851 106° East  Level Estimated
Sun 12:44:00 PM 38.8742 -99.7376 106° East  Level Estimated
Sun 12:45:00 PM 38.8410 -99.5903 106° East  Level Estimated
Sun 12:46:00 PM 38.8077 -99.4431 106° East  Level Estimated
Sun 12:47:00 PM 38.7742 -99.2960 106° East  Level Estimated
Sun 12:48:00 PM 38.7405 -99.1491 106° East  Level Estimated
Sun 12:49:00 PM 38.7066 -99.0024 106° East  Level Estimated
Sun 12:50:00 PM 38.6725 -98.8557 107° East  Level Estimated
Sun 12:51:00 PM 38.6383 -98.7092 107° East  Level Estimated
Sun 12:52:00 PM 38.6039 -98.5629 107° East  Level Estimated
Sun 12:53:00 PM 38.5692 -98.4167 107° East  Level Estimated
Sun 12:54:00 PM 38.5345 -98.2706 107° East  Level Estimated
Sun 12:55:00 PM 38.4995 -98.1247 107° East  Level Estimated
Sun 12:56:00 PM 38.4643 -97.9789 107° East  Level Estimated
Sun 12:57:00 PM 38.4290 -97.8332 107° East  Level Estimated
Sun 12:58:00 PM 38.3935 -97.6877 107° East  Level Estimated
Sun 12:59:00 PM 38.3578 -97.5424 107° East  Level Estimated
Sun 01:00:00 PM 38.3219 -97.3971 107° East  Level Estimated
Sun 01:01:00 PM 38.2859 -97.2521 108° East  Level Estimated
Sun 01:02:00 PM 38.2496 -97.1071 108° East  Level Estimated
Sun 01:03:00 PM 38.2132 -96.9624 108° East  Level Estimated
Sun 01:04:00 PM 38.1766 -96.8177 108° East  Level Estimated
Sun 01:05:00 PM 38.1399 -96.6732 108° East  Level Estimated
Sun 01:06:00 PM 38.1029 -96.5289 108° East  Level Estimated
Sun 01:07:00 PM 38.0658 -96.3847 108° East  Level Estimated
Sun 01:08:00 PM 38.0285 -96.2406 108° East  Level Estimated
Sun 01:09:00 PM 37.9910 -96.0967 108° East  Level Estimated
Sun 01:10:00 PM 37.9534 -95.9530 108° East  Level Estimated
Sun 01:11:00 PM 37.9156 -95.8093 108° East  Level Estimated
Sun 01:12:00 PM 37.8776 -95.6659 109° East  Level Estimated
Sun 01:13:00 PM 37.8394 -95.5226 109° East  Level Estimated
Sun 01:14:00 PM 37.8011 -95.3794 109° East  Level Estimated
Sun 01:15:00 PM 37.7626 -95.2364 109° East  Level Estimated
Sun 01:16:00 PM 37.7239 -95.0935 109° East  Level Estimated
Sun 01:17:00 PM 37.6850 -94.9508 109° East  Level Estimated
Sun 01:18:00 PM 37.6460 -94.8082 109° East  Level Estimated
Sun 01:19:00 PM 37.6068 -94.6658 109° East  Level Estimated
Sun 01:20:00 PM 37.5674 -94.5235 109° East  Level Estimated
Sun 01:21:00 PM 37.5279 -94.3814 109° East  Level Estimated
Sun 01:22:00 PM 37.4881 -94.2394 109° East  Level Estimated
Sun 01:23:00 PM 37.4482 -94.0976 109° East  Level Estimated
Sun 01:24:00 PM 37.4082 -93.9559 110° East  Level Estimated
Sun 01:25:00 PM 37.3680 -93.8144 110° East  Level Estimated
Sun 01:26:00 PM 37.3276 -93.6731 110° East  Level Estimated
Sun 01:27:00 PM 37.2870 -93.5319 110° East  Level Estimated
Sun 01:28:00 PM 37.2463 -93.3908 110° East  Level Estimated
Sun 01:29:00 PM 37.2457 -93.3886 110° East  Level Estimated
Sun 01:30:00 PM 37.2457 -93.3886 165° South  Level Estimated
Sun 01:31:00 PM 37.2457 -93.3886 165° South  Level Estimated
Sun 01:32:00 PM 37.2457 -93.3886 165° South  Level Estimated
Sun 01:33:00 PM 37.2457 -93.3886 165° South  Level Estimated
Sun 01:34:00 PM 37.2457 -93.3886 165° South  Level Estimated
Sun 01:35:00 PM 37.2457 -93.3886 165° South  Level Estimated
Sun 01:36:00 PM 37.2457 -93.3886 165° South  Level Estimated

Login

Don't have an account? Register now (free) for customized features, flight alerts, and more!